Time;durP1;ratioP1;P1;durP2;ratioP2;P2;SDS_P1;SDS_P2;PMS_P1;PMS_P2;Temp;Humidity;BMP_temperature;BMP_pressure;BME280_temperature;BME280_humidity;BME280_pressure;Samples;Min_cycle;Max_cycle;Signal;HPM_P1;HPM_P2
2023/01/22 00:01:53;;;;;;;11.85;7.43;;;14.60;61.90;;;;;;4194572;28;20105;-62
2023/01/22 00:04:35;;;;;;;11.63;8.48;;;14.60;62.60;;;;;;4189904;28;20056;-62
2023/01/22 00:07:16;;;;;;;11.60;8.95;;;14.60;60.90;;;;;;4193883;28;20178;-63
2023/01/22 00:09:58;;;;;;;9.80;8.23;;;14.60;59.50;;;;;;4194614;28;20063;-63
2023/01/22 00:12:39;;;;;;;9.68;8.60;;;14.60;59.80;;;;;;4210709;28;20051;-62
2023/01/22 00:15:22;;;;;;;13.40;8.27;;;14.60;60.30;;;;;;4211328;28;20055;-62
2023/01/22 00:18:03;;;;;;;11.57;9.23;;;14.60;60.00;;;;;;4210201;28;20047;-62
2023/01/22 00:20:47;;;;;;;10.43;8.40;;;14.60;61.20;;;;;;4202652;28;20059;-61
2023/01/22 00:23:27;;;;;;;10.82;9.00;;;14.70;62.00;;;;;;4178021;28;20098;-62
2023/01/22 00:26:11;;;;;;;8.70;7.68;;;14.80;62.50;;;;;;4178013;28;20067;-63
2023/01/22 00:28:54;;;;;;;10.63;8.20;;;14.80;62.20;;;;;;4177528;28;20457;-63
2023/01/22 00:31:37;;;;;;;;;;;14.90;62.70;;;;;;4194674;28;20402;-62
2023/01/22 00:34:18;;;;;;;9.15;7.47;;;14.80;61.80;;;;;;4211256;28;20393;-62
2023/01/22 00:36:59;;;;;;;8.38;7.47;;;14.80;62.90;;;;;;4198078;28;20114;-63
2023/01/22 00:39:40;;;;;;;7.63;6.93;;;14.80;62.20;;;;;;4193240;28;20047;-62
2023/01/22 00:42:21;;;;;;;9.27;7.88;;;14.80;62.80;;;;;;4208630;28;20069;-61
2023/01/22 00:45:02;;;;;;;8.27;7.53;;;14.90;63.00;;;;;;4210963;28;20162;-61
2023/01/22 00:47:44;;;;;;;8.52;7.45;;;14.90;62.60;;;;;;4210762;28;20058;-61
2023/01/22 00:50:26;;;;;;;9.60;7.45;;;15.00;62.70;;;;;;4199783;28;20060;-61
2023/01/22 00:53:06;;;;;;;10.18;7.50;;;15.00;62.90;;;;;;4210790;28;20047;-61
2023/01/22 00:55:51;;;;;;;10.90;8.30;;;15.00;63.10;;;;;;4204776;28;20218;-61
2023/01/22 00:58:32;;;;;;;7.75;7.05;;;15.10;62.90;;;;;;4193015;28;20425;-61
2023/01/22 01:01:14;;;;;;;9.75;8.00;;;15.20;62.60;;;;;;4181051;28;20044;-60
2023/01/22 01:03:56;;;;;;;9.20;7.25;;;15.20;62.50;;;;;;4191475;28;20055;-62
2023/01/22 01:06:37;;;;;;;10.05;7.90;;;15.20;62.60;;;;;;4192479;28;20051;-62
2023/01/22 01:09:18;;;;;;;11.07;7.87;;;15.20;62.90;;;;;;4193942;28;20052;-61
2023/01/22 01:11:59;;;;;;;10.52;7.85;;;15.20;63.20;;;;;;4208391;28;20059;-61
2023/01/22 01:14:40;;;;;;;10.88;7.90;;;15.20;63.40;;;;;;4210426;28;20054;-62
2023/01/22 01:17:20;;;;;;;9.50;7.77;;;15.20;63.40;;;;;;4176623;28;20056;-61
2023/01/22 01:20:03;;;;;;;8.70;7.40;;;15.20;63.50;;;;;;4177098;28;20660;-61
2023/01/22 01:22:44;;;;;;;8.90;8.00;;;15.10;63.40;;;;;;4193020;28;20051;-61
2023/01/22 01:25:25;;;;;;;10.17;8.10;;;15.10;63.70;;;;;;4193664;28;20059;-61
2023/01/22 01:28:06;;;;;;;8.45;7.65;;;15.10;63.80;;;;;;4204029;28;20051;-61
2023/01/22 01:30:47;;;;;;;8.45;7.50;;;15.00;64.10;;;;;;4211314;28;20186;-61
2023/01/22 01:33:28;;;;;;;8.82;7.00;;;15.00;64.40;;;;;;4208873;28;20051;-61
2023/01/22 01:36:11;;;;;;;11.63;7.32;;;15.10;64.40;;;;;;4210012;28;20047;-61
2023/01/22 01:38:54;;;;;;;12.70;8.25;;;15.20;64.20;;;;;;4204398;28;20098;-61
2023/01/22 01:41:34;;;;;;;8.90;8.00;;;15.20;64.00;;;;;;4191568;28;20051;-61
2023/01/22 01:44:17;;;;;;;8.85;7.15;;;15.10;64.60;;;;;;4193127;28;20087;-63
2023/01/22 01:47:04;;;;;;;10.82;7.28;;;15.20;64.00;;;;;;4190961;28;20063;-63
2023/01/22 01:49:49;;;;;;;8.45;7.40;;;15.20;64.10;;;;;;4194089;28;20502;-63
2023/01/22 01:52:31;;;;;;;8.02;7.22;;;15.20;64.00;;;;;;4209396;28;20051;-62
2023/01/22 01:55:12;;;;;;;10.27;8.40;;;15.30;63.70;;;;;;4177432;28;20052;-65
2023/01/22 01:57:55;;;;;;;9.73;8.35;;;15.30;63.60;;;;;;4192572;28;20477;-64
2023/01/22 02:00:38;;;;;;;8.77;7.88;;;15.30;63.60;;;;;;4191703;28;20097;-64
2023/01/22 02:03:20;;;;;;;10.02;7.45;;;15.30;63.60;;;;;;4192662;28;20093;-64
2023/01/22 02:06:01;;;;;;;8.07;6.78;;;15.30;63.20;;;;;;4189974;28;20079;-63
2023/01/22 02:08:46;;;;;;;8.00;7.20;;;15.30;62.90;;;;;;4194486;28;20099;-63
2023/01/22 02:11:29;;;;;;;8.02;7.03;;;15.30;63.20;;;;;;4207323;28;20327;-63
2023/01/22 02:14:14;;;;;;;7.28;6.43;;;15.30;63.40;;;;;;4191535;28;20059;-63
2023/01/22 02:17:01;;;;;;;7.60;6.15;;;15.30;63.20;;;;;;4191670;28;20084;-63
2023/01/22 02:19:43;;;;;;;12.10;6.88;;;15.30;63.00;;;;;;4176311;28;20059;-63
2023/01/22 02:22:29;;;;;;;10.70;6.50;;;15.20;63.40;;;;;;4174902;28;20060;-63
2023/01/22 02:25:12;;;;;;;6.80;5.60;;;15.20;63.50;;;;;;4175196;28;20153;-63
2023/01/22 02:27:53;;;;;;;;;;;15.10;63.70;;;;;;4196880;28;20395;-63
2023/01/22 02:30:35;;;;;;;8.77;5.55;;;15.10;64.10;;;;;;4191698;28;19926;-63
2023/01/22 02:33:17;;;;;;;5.97;4.75;;;15.00;64.50;;;;;;4192631;28;20052;-63
2023/01/22 02:35:58;;;;;;;;;;;15.00;64.70;;;;;;4156783;28;20051;-63
2023/01/22 02:38:40;;;;;;;5.57;4.43;;;15.00;64.70;;;;;;4179586;28;19931;-63
2023/01/22 02:41:21;;;;;;;4.70;4.22;;;15.10;63.40;;;;;;4179720;28;20051;-61
2023/01/22 02:44:02;;;;;;;4.75;4.28;;;15.10;63.20;;;;;;4187352;28;20051;-61
2023/01/22 02:46:43;;;;;;;5.15;4.22;;;15.10;62.00;;;;;;4192106;28;20549;-61
2023/01/22 02:49:25;;;;;;;4.35;3.42;;;15.10;61.70;;;;;;4191279;28;20060;-61
2023/01/22 02:52:05;;;;;;;6.00;3.85;;;15.20;60.60;;;;;;4191303;28;20532;-60
2023/01/22 02:54:48;;;;;;;;;;;15.20;60.10;;;;;;4191767;28;20510;-61
2023/01/22 02:57:30;;;;;;;3.42;3.10;;;15.20;61.10;;;;;;4191138;28;20013;-61
2023/01/22 03:00:12;;;;;;;4.15;3.80;;;15.20;60.20;;;;;;4189521;28;20056;-60
2023/01/22 03:02:53;;;;;;;5.43;3.47;;;15.20;59.20;;;;;;4200249;28;20133;-61
2023/01/22 03:05:34;;;;;;;6.47;3.50;;;15.20;59.20;;;;;;4194377;28;20055;-60
2023/01/22 03:08:18;;;;;;;3.40;3.10;;;15.20;59.60;;;;;;4208483;28;20055;-60
2023/01/22 03:11:00;;;;;;;;;;;15.20;59.50;;;;;;4207860;28;20118;-61
2023/01/22 03:22:35;;;;;;;5.35;3.10;;;14.80;60.40;;;;;;4189983;28;20055;-60
2023/01/22 03:25:16;;;;;;;3.45;2.90;;;14.80;59.50;;;;;;4190795;28;20048;-60
2023/01/22 03:28:15;;;;;;;4.13;2.97;;;14.80;59.90;;;;;;4190665;28;20070;-59
2023/01/22 03:31:00;;;;;;;3.25;3.03;;;14.70;60.20;;;;;;4190799;28;20182;-60
2023/01/22 03:33:43;;;;;;;5.20;3.22;;;14.70;60.10;;;;;;4206535;28;20559;-61
2023/01/22 03:36:25;;;;;;;3.75;3.05;;;14.60;60.20;;;;;;4208439;28;20075;-60
2023/01/22 03:39:10;;;;;;;4.80;3.38;;;14.50;59.70;;;;;;4206292;28;20043;-60
2023/01/22 03:41:51;;;;;;;4.30;3.10;;;14.40;60.40;;;;;;4196369;28;20051;-60
2023/01/22 03:44:33;;;;;;;5.90;3.22;;;14.40;60.20;;;;;;4207528;28;20266;-60
2023/01/22 03:47:14;;;;;;;4.60;3.20;;;14.30;61.10;;;;;;4207720;28;20047;-59
2023/01/22 03:49:56;;;;;;;3.30;2.92;;;14.20;62.00;;;;;;4207597;28;20097;-60
2023/01/22 03:52:38;;;;;;;3.28;3.00;;;14.20;62.20;;;;;;4196437;28;20502;-60
2023/01/22 03:55:18;;;;;;;2.73;2.63;;;14.40;62.40;;;;;;4175480;28;20507;-61
2023/01/22 03:57:59;;;;;;;3.30;3.00;;;14.60;62.20;;;;;;4174061;28;20847;-60
2023/01/22 04:00:42;;;;;;;4.32;2.80;;;14.70;62.00;;;;;;4189558;28;20055;-62
2023/01/22 04:03:24;;;;;;;2.83;2.63;;;14.90;61.50;;;;;;4190076;28;20063;-63
2023/01/22 04:06:06;;;;;;;3.30;3.00;;;15.00;60.60;;;;;;4193794;28;20109;-62
2023/01/22 04:08:49;;;;;;;2.72;2.53;;;15.10;57.90;;;;;;4192394;28;20060;-63
2023/01/22 04:11:32;;;;;;;3.25;2.42;;;15.30;57.40;;;;;;4184501;28;20121;-62
2023/01/22 04:14:14;;;;;;;2.75;2.55;;;15.40;58.30;;;;;;4209574;28;20059;-63
2023/01/22 04:17:04;;;;;;;2.80;2.60;;;15.50;58.10;;;;;;4208864;28;20485;-62
2023/01/22 04:20:14;;;;;;;;;;;15.60;57.90;;;;;;4191061;28;20106;-62
2023/01/22 04:23:10;;;;;;;2.55;2.20;;;15.70;57.10;;;;;;4209126;28;19927;-62
2023/01/22 04:25:51;;;;;;;3.20;2.90;;;15.80;56.80;;;;;;4175263;28;20048;-62
2023/01/22 04:28:32;;;;;;;5.47;3.42;;;15.80;55.40;;;;;;4176810;28;20384;-62
2023/01/22 04:31:14;;;;;;;4.00;2.30;;;15.80;54.30;;;;;;4194862;28;20498;-62
2023/01/22 04:34:02;;;;;;;3.58;2.78;;;15.70;53.80;;;;;;4210173;28;20504;-62
2023/01/22 04:36:44;;;;;;;4.45;2.92;;;15.60;54.80;;;;;;4210012;28;20051;-62
2023/01/22 04:39:26;;;;;;;5.03;3.15;;;15.60;55.90;;;;;;4193593;28;20047;-62
2023/01/22 04:42:06;;;;;;;3.13;2.88;;;15.60;56.20;;;;;;4193189;28;20048;-62
2023/01/22 04:44:47;;;;;;;9.88;3.65;;;15.60;55.00;;;;;;4193197;28;20106;-62
2023/01/22 04:47:28;;;;;;;3.88;3.15;;;15.70;53.80;;;;;;4193318;28;20387;-62
2023/01/22 04:50:16;;;;;;;3.72;3.33;;;15.70;55.50;;;;;;4200904;28;20055;-62
2023/01/22 04:52:57;;;;;;;3.20;3.00;;;15.70;54.50;;;;;;4198511;28;20113;-62
2023/01/22 04:55:40;;;;;;;5.57;2.95;;;15.70;55.10;;;;;;4195103;28;20055;-62
2023/01/22 04:58:22;;;;;;;3.38;3.03;;;15.80;55.20;;;;;;4192688;28;20052;-65
2023/01/22 05:01:05;;;;;;;3.40;2.90;;;15.90;54.40;;;;;;4208334;28;20055;-63
2023/01/22 05:03:46;;;;;;;2.97;2.78;;;15.90;53.40;;;;;;4208333;28;20398;-62
2023/01/22 05:06:29;;;;;;;3.17;2.97;;;15.90;53.50;;;;;;4209649;28;20182;-63
2023/01/22 05:09:11;;;;;;;5.80;3.10;;;15.80;54.00;;;;;;4208012;28;20158;-63
2023/01/22 05:12:11;;;;;;;6.22;2.95;;;15.90;53.60;;;;;;4192267;28;20097;-63
2023/01/22 05:14:54;;;;;;;4.03;3.00;;;15.80;53.40;;;;;;4192597;28;20133;-62
2023/01/22 05:17:35;;;;;;;5.35;3.30;;;15.80;54.40;;;;;;4194246;28;20055;-63
2023/01/22 05:20:17;;;;;;;3.63;2.95;;;15.70;55.20;;;;;;4210542;28;20047;-62
2023/01/22 05:23:00;;;;;;;5.15;2.70;;;15.60;55.80;;;;;;4209356;28;20059;-63
2023/01/22 05:25:47;;;;;;;3.38;3.00;;;15.50;56.20;;;;;;4209020;28;20059;-63
2023/01/22 05:28:30;;;;;;;3.22;2.95;;;15.40;56.50;;;;;;4194107;28;20039;-62
2023/01/22 05:31:17;;;;;;;3.85;3.08;;;15.30;57.20;;;;;;4208548;28;20071;-62
2023/01/22 05:34:19;;;;;;;5.18;2.85;;;15.30;57.70;;;;;;4209892;28;20102;-62
2023/01/22 05:37:00;;;;;;;2.78;2.60;;;15.20;58.20;;;;;;4208772;28;20097;-63
2023/01/22 05:39:46;;;;;;;3.53;3.22;;;15.20;58.50;;;;;;4175685;28;20459;-63
2023/01/22 05:42:28;;;;;;;4.13;3.70;;;15.20;56.70;;;;;;4175693;28;20059;-62
2023/01/22 05:45:10;;;;;;;3.95;3.65;;;15.30;56.20;;;;;;4175700;28;20056;-63
2023/01/22 05:48:01;;;;;;;3.47;3.17;;;15.20;54.50;;;;;;4190116;28;20067;-63
2023/01/22 05:50:50;;;;;;;4.07;3.78;;;15.20;55.60;;;;;;4208938;28;20047;-63
2023/01/22 05:53:31;;;;;;;3.58;3.10;;;15.30;55.50;;;;;;4208582;28;20047;-62
2023/01/22 05:56:13;;;;;;;4.65;3.10;;;15.40;56.40;;;;;;4209674;28;20051;-63
2023/01/22 05:58:54;;;;;;;3.22;3.00;;;15.50;56.60;;;;;;4194613;28;20197;-62
2023/01/22 06:01:35;;;;;;;;;;;15.60;56.70;;;;;;4176091;28;20110;-62
2023/01/22 06:04:16;;;;;;;3.25;2.95;;;15.60;56.80;;;;;;4198902;28;19936;-63
2023/01/22 06:06:57;;;;;;;3.72;2.90;;;15.70;56.00;;;;;;4176447;28;20441;-62
2023/01/22 06:09:38;;;;;;;5.68;3.25;;;15.80;56.30;;;;;;4208453;28;20090;-62
2023/01/22 06:12:20;;;;;;;4.53;3.20;;;15.80;55.80;;;;;;4208329;28;20070;-63
2023/01/22 06:15:01;;;;;;;3.80;3.50;;;15.80;56.00;;;;;;4208767;28;20046;-63
2023/01/22 06:17:42;;;;;;;3.70;3.00;;;15.80;54.80;;;;;;4188179;28;20145;-63
2023/01/22 06:20:23;;;;;;;4.68;3.75;;;15.80;55.00;;;;;;4209485;28;20181;-63
2023/01/22 06:23:04;;;;;;;4.60;3.90;;;15.80;55.40;;;;;;4208552;28;20182;-63
2023/01/22 06:25:51;;;;;;;3.80;3.50;;;15.80;55.20;;;;;;4208282;28;20652;-64
2023/01/22 06:28:33;;;;;;;3.53;3.28;;;15.90;55.20;;;;;;4194740;28;20096;-61
2023/01/22 06:31:15;;;;;;;3.75;3.50;;;15.90;54.20;;;;;;4190002;28;20387;-61
2023/01/22 06:33:56;;;;;;;3.28;3.00;;;15.80;55.10;;;;;;4190387;28;20060;-61
2023/01/22 06:36:37;;;;;;;5.75;3.42;;;15.70;54.50;;;;;;4190243;28;20055;-62
2023/01/22 06:39:19;;;;;;;3.75;3.40;;;15.60;55.20;;;;;;4185115;28;20055;-62
2023/01/22 06:42:12;;;;;;;3.65;3.33;;;15.60;55.20;;;;;;4174186;28;20056;-62
2023/01/22 06:44:55;;;;;;;5.70;3.38;;;15.60;54.80;;;;;;4185876;28;20060;-62
2023/01/22 06:47:43;;;;;;;3.75;3.30;;;15.70;54.80;;;;;;4196098;28;20073;-62
2023/01/22 06:50:25;;;;;;;2.92;2.72;;;15.80;55.20;;;;;;4191514;28;20063;-63
2023/01/22 06:53:06;;;;;;;3.97;3.65;;;15.80;55.20;;;;;;4191485;28;20059;-63
2023/01/22 06:55:47;;;;;;;3.78;3.47;;;15.80;53.70;;;;;;4191418;28;20048;-62
2023/01/22 06:58:28;;;;;;;4.18;3.40;;;15.80;55.30;;;;;;4205104;28;20059;-63
2023/01/22 07:01:10;;;;;;;4.78;4.05;;;15.80;55.10;;;;;;4209185;28;20058;-63
2023/01/22 07:03:51;;;;;;;5.72;3.80;;;15.80;55.40;;;;;;4205671;28;20067;-61
2023/01/22 07:06:33;;;;;;;4.00;3.70;;;15.90;56.10;;;;;;4192384;28;20052;-62
2023/01/22 07:09:14;;;;;;;4.25;3.80;;;15.90;56.50;;;;;;4192204;28;20097;-63
2023/01/22 07:11:57;;;;;;;4.03;3.40;;;16.00;55.80;;;;;;4192437;28;20499;-62
2023/01/22 07:14:38;;;;;;;4.78;3.20;;;16.00;56.30;;;;;;4189731;28;20055;-62
2023/01/22 07:17:20;;;;;;;3.00;2.80;;;16.00;56.40;;;;;;4201255;28;20580;-62
2023/01/22 07:20:00;;;;;;;3.85;2.97;;;15.90;55.40;;;;;;4207102;28;20085;-62
2023/01/22 07:22:41;;;;;;;3.30;2.85;;;15.90;55.40;;;;;;4175745;28;20064;-62
2023/01/22 07:25:22;;;;;;;3.55;3.35;;;15.80;55.40;;;;;;4176908;28;20064;-61
2023/01/22 07:28:05;;;;;;;3.92;3.55;;;15.80;55.70;;;;;;4192222;28;20542;-62
2023/01/22 07:30:46;;;;;;;7.18;3.45;;;15.70;56.20;;;;;;4188965;28;20561;-62
2023/01/22 07:33:28;;;;;;;3.38;3.08;;;15.70;57.00;;;;;;4190872;28;20151;-61
2023/01/22 07:36:09;;;;;;;3.63;3.13;;;15.60;57.20;;;;;;4202089;28;20051;-61
2023/01/22 07:38:50;;;;;;;3.40;3.20;;;15.60;56.30;;;;;;4174705;28;20098;-61
2023/01/22 07:41:31;;;;;;;3.33;2.80;;;15.60;57.10;;;;;;4178490;28;20064;-62
2023/01/22 07:44:12;;;;;;;6.80;3.08;;;15.50;56.60;;;;;;4178444;28;20426;-64
2023/01/22 07:46:53;;;;;;;3.10;2.90;;;15.50;57.00;;;;;;4193470;28;20407;-65
2023/01/22 07:49:35;;;;;;;3.58;2.88;;;15.50;56.00;;;;;;4194747;28;20105;-65
2023/01/22 07:52:16;;;;;;;3.63;3.38;;;15.50;54.60;;;;;;4194788;28;20528;-64
2023/01/22 07:54:57;;;;;;;6.60;3.35;;;15.50;53.20;;;;;;4199001;28;20078;-61
2023/01/22 07:57:38;;;;;;;3.88;3.17;;;15.50;52.20;;;;;;4211491;28;20516;-62
2023/01/22 08:00:20;;;;;;;3.60;3.40;;;15.40;52.10;;;;;;4210684;28;20398;-61
2023/01/22 08:03:01;;;;;;;4.38;3.45;;;15.30;51.70;;;;;;4211835;28;20055;-62
2023/01/22 08:05:44;;;;;;;3.90;3.60;;;15.30;53.70;;;;;;4209644;28;20058;-62
2023/01/22 08:08:24;;;;;;;3.42;3.13;;;15.30;52.10;;;;;;4211284;28;20399;-62
2023/01/22 08:11:05;;;;;;;4.13;3.72;;;15.30;52.20;;;;;;4194531;28;20060;-61
2023/01/22 08:13:46;;;;;;;3.42;3.00;;;15.40;53.60;;;;;;4178067;28;20179;-61
2023/01/22 08:16:27;;;;;;;4.30;3.58;;;15.50;53.80;;;;;;4178349;28;20487;-60
2023/01/22 08:19:09;;;;;;;3.58;3.22;;;15.60;51.70;;;;;;4178319;28;20056;-61
2023/01/22 08:21:51;;;;;;;3.25;3.05;;;15.60;51.30;;;;;;4178045;28;20074;-61
2023/01/22 08:24:33;;;;;;;3.95;3.15;;;15.60;52.10;;;;;;4183787;28;20063;-61
2023/01/22 08:27:14;;;;;;;3.42;3.22;;;15.60;52.70;;;;;;4194366;28;20050;-60
2023/01/22 08:29:55;;;;;;;4.65;2.95;;;15.60;52.30;;;;;;4193860;28;20063;-60
2023/01/22 08:32:36;;;;;;;4.15;3.85;;;15.70;52.40;;;;;;4177700;28;20134;-61
2023/01/22 08:35:17;;;;;;;4.40;3.15;;;15.70;52.30;;;;;;4195998;28;20063;-62
2023/01/22 08:38:00;;;;;;;6.10;3.47;;;15.70;51.00;;;;;;4193796;28;20063;-60
2023/01/22 08:40:41;;;;;;;5.78;3.17;;;15.60;51.00;;;;;;4204798;28;20414;-60
2023/01/22 08:43:23;;;;;;;4.05;3.45;;;15.60;51.80;;;;;;4195402;28;20055;-61
2023/01/22 08:46:04;;;;;;;5.75;3.90;;;15.50;50.80;;;;;;4192590;28;20046;-61
2023/01/22 08:48:46;;;;;;;3.13;2.83;;;15.50;51.10;;;;;;4194298;28;20059;-61
2023/01/22 08:51:27;;;;;;;3.80;3.50;;;15.40;50.40;;;;;;4204158;28;20508;-61
2023/01/22 08:54:09;;;;;;;3.85;3.40;;;15.30;50.70;;;;;;4210940;28;20208;-63
2023/01/22 08:56:50;;;;;;;3.67;3.38;;;15.20;50.00;;;;;;4199304;28;20063;-62
2023/01/22 08:59:31;;;;;;;3.50;3.20;;;15.10;51.50;;;;;;4193627;28;20059;-62
2023/01/22 09:02:13;;;;;;;4.28;3.58;;;15.00;52.50;;;;;;4208572;28;20075;-63
2023/01/22 09:04:54;;;;;;;4.07;3.67;;;14.90;53.00;;;;;;4208739;28;20418;-63
2023/01/22 09:07:35;;;;;;;5.68;4.40;;;14.80;52.40;;;;;;4210429;28;20058;-63
2023/01/22 09:10:17;;;;;;;4.13;3.70;;;14.60;52.70;;;;;;4207583;28;20055;-63
2023/01/22 09:13:01;;;;;;;5.60;3.75;;;14.60;52.80;;;;;;4210113;28;20197;-62
2023/01/22 09:15:42;;;;;;;4.97;3.55;;;14.60;53.90;;;;;;4210100;28;20051;-62
2023/01/22 09:18:23;;;;;;;4.40;4.10;;;14.70;53.20;;;;;;4209996;28;20556;-63
2023/01/22 09:21:05;;;;;;;4.25;3.83;;;14.70;52.50;;;;;;4197738;28;20183;-62
2023/01/22 09:23:45;;;;;;;5.18;3.90;;;14.70;52.70;;;;;;4193736;28;20129;-63
2023/01/22 09:26:28;;;;;;;4.40;4.00;;;14.70;52.90;;;;;;4193196;28;20051;-63
2023/01/22 09:29:09;;;;;;;3.97;3.67;;;14.70;52.80;;;;;;4193432;28;20114;-63
2023/01/22 09:31:49;;;;;;;4.65;4.03;;;14.70;52.00;;;;;;4209209;28;20055;-62
2023/01/22 09:34:32;;;;;;;3.45;3.15;;;14.70;52.00;;;;;;4210090;28;20055;-61
2023/01/22 09:37:13;;;;;;;3.60;3.40;;;14.70;53.10;;;;;;4209930;28;20043;-63
2023/01/22 09:39:54;;;;;;;4.78;3.65;;;14.60;52.80;;;;;;4194067;28;20127;-63
2023/01/22 09:42:40;;;;;;;3.80;3.53;;;14.60;53.60;;;;;;4193316;28;20135;-63
2023/01/22 09:45:25;;;;;;;4.00;3.70;;;14.70;52.90;;;;;;4192617;28;20294;-63
2023/01/22 09:48:13;;;;;;;4.78;4.30;;;14.90;52.10;;;;;;4192728;28;20056;-65
2023/01/22 09:50:54;;;;;;;4.05;3.72;;;15.20;52.10;;;;;;4183934;28;20055;-64
2023/01/22 09:53:35;;;;;;;4.53;3.45;;;15.60;50.00;;;;;;4192546;28;20210;-65
2023/01/22 09:56:21;;;;;;;3.53;3.33;;;16.00;49.90;;;;;;4191914;28;20063;-64
2023/01/22 09:59:06;;;;;;;4.68;3.67;;;16.40;48.20;;;;;;4200156;28;20047;-62
2023/01/22 10:01:50;;;;;;;3.25;3.05;;;16.80;48.00;;;;;;4206517;28;20592;-63
2023/01/22 10:04:36;;;;;;;3.67;3.38;;;17.00;47.60;;;;;;4187318;28;20183;-63
2023/01/22 10:07:22;;;;;;;4.10;3.80;;;17.30;47.70;;;;;;4192028;28;20060;-63
2023/01/22 10:10:18;;;;;;;3.72;3.50;;;17.60;47.90;;;;;;4208274;28;20046;-62
2023/01/22 10:13:06;;;;;;;3.78;3.47;;;17.80;46.50;;;;;;4196333;28;20085;-61
2023/01/22 10:15:50;;;;;;;3.58;3.33;;;17.80;46.20;;;;;;4209131;28;20129;-63
2023/01/22 10:18:36;;;;;;;3.55;3.25;;;17.80;45.50;;;;;;4207047;28;20521;-62
2023/01/22 10:21:20;;;;;;;5.18;3.40;;;17.70;46.40;;;;;;4209118;28;20051;-62
2023/01/22 10:24:01;;;;;;;3.97;3.58;;;17.50;47.00;;;;;;4201930;28;20058;-63
2023/01/22 10:26:47;;;;;;;4.03;3.72;;;17.40;46.10;;;;;;4193288;28;20502;-62
2023/01/22 10:29:32;;;;;;;4.88;3.25;;;17.30;47.40;;;;;;4185744;28;20197;-63
2023/01/22 10:32:21;;;;;;;5.45;3.63;;;17.20;46.80;;;;;;4192349;28;20411;-63
2023/01/22 10:35:04;;;;;;;4.35;3.95;;;17.10;48.70;;;;;;4176209;28;20120;-63
2023/01/22 10:37:47;;;;;;;3.55;3.25;;;17.00;47.50;;;;;;4187064;28;20051;-62
2023/01/22 10:40:33;;;;;;;4.55;3.47;;;17.00;47.30;;;;;;4192303;28;20048;-62
2023/01/22 10:43:17;;;;;;;3.67;3.38;;;16.90;47.80;;;;;;4196468;28;20047;-62
2023/01/22 10:46:03;;;;;;;4.78;4.15;;;17.00;47.10;;;;;;4208594;28;20105;-62
2023/01/22 10:48:57;;;;;;;4.22;3.58;;;17.00;47.30;;;;;;4208798;28;20055;-63
2023/01/22 10:51:42;;;;;;;3.88;3.58;;;17.10;47.80;;;;;;4205681;28;20059;-62
2023/01/22 10:54:28;;;;;;;7.57;3.50;;;17.20;46.90;;;;;;4194953;28;20051;-62
2023/01/22 10:57:18;;;;;;;4.15;3.75;;;17.30;47.30;;;;;;4190865;28;20051;-63
2023/01/22 11:00:08;;;;;;;3.63;3.42;;;17.40;46.30;;;;;;4181891;28;20055;-64
2023/01/22 11:02:50;;;;;;;5.28;3.67;;;17.50;46.70;;;;;;4191924;28;20206;-64
2023/01/22 11:05:35;;;;;;;4.07;3.80;;;17.60;47.10;;;;;;4175622;28;20231;-64
2023/01/22 11:08:19;;;;;;;4.05;3.72;;;17.60;46.50;;;;;;4188989;28;20051;-64
2023/01/22 11:11:04;;;;;;;3.97;3.72;;;17.60;46.10;;;;;;4192109;28;20051;-64
2023/01/22 11:13:52;;;;;;;3.95;3.70;;;17.50;46.40;;;;;;4183067;28;20059;-64
2023/01/22 11:16:37;;;;;;;3.85;3.58;;;17.50;47.70;;;;;;4195591;28;20050;-63
2023/01/22 11:19:21;;;;;;;4.05;3.70;;;17.50;46.20;;;;;;4195284;28;20051;-64
2023/01/22 11:22:28;;;;;;;4.43;4.10;;;17.60;47.60;;;;;;4195276;28;20129;-65
2023/01/22 11:25:11;;;;;;;4.00;3.70;;;17.60;47.30;;;;;;4195109;28;21093;-66
2023/01/22 11:28:05;;;;;;;3.85;3.58;;;17.60;47.20;;;;;;4195420;28;20060;-64
2023/01/22 11:31:01;;;;;;;4.13;3.80;;;17.70;49.50;;;;;;4195179;28;20507;-65
2023/01/22 11:33:55;;;;;;;4.05;3.65;;;17.80;50.30;;;;;;4191471;28;20675;-64
2023/01/22 11:36:41;;;;;;;4.45;3.65;;;17.90;50.20;;;;;;4194729;28;20052;-64
2023/01/22 11:39:40;;;;;;;4.40;3.85;;;18.00;50.40;;;;;;4195349;28;20907;-64
2023/01/22 11:42:31;;;;;;;4.32;3.92;;;18.10;50.30;;;;;;4196143;28;20044;-64
2023/01/22 11:45:31;;;;;;;3.80;3.50;;;18.10;50.40;;;;;;4195153;28;20052;-64
2023/01/22 11:48:24;;;;;;;4.65;3.72;;;18.00;49.20;;;;;;4194518;28;20189;-65
2023/01/22 11:51:18;;;;;;;5.40;3.63;;;17.90;49.70;;;;;;4187146;28;20054;-65
2023/01/22 11:54:26;;;;;;;5.32;3.47;;;17.70;50.10;;;;;;4212031;28;20548;-64
2023/01/22 11:57:18;;;;;;;3.75;3.55;;;17.60;49.80;;;;;;4210449;28;20047;-65
2023/01/22 12:00:19;;;;;;;3.88;3.58;;;17.60;50.80;;;;;;4199331;28;20063;-65
2023/01/22 12:03:19;;;;;;;6.15;4.05;;;17.50;50.30;;;;;;4182921;28;20085;-66
2023/01/22 12:06:12;;;;;;;4.10;3.67;;;17.30;51.00;;;;;;4192777;28;20059;-65
2023/01/22 12:09:00;;;;;;;3.97;3.60;;;17.10;51.30;;;;;;4193026;28;20063;-66
2023/01/22 12:12:03;;;;;;;3.85;3.63;;;17.00;51.80;;;;;;4194605;28;20047;-66
2023/01/22 12:15:06;;;;;;;3.80;3.50;;;16.80;52.60;;;;;;4194409;28;20171;-66
2023/01/22 12:18:02;;;;;;;3.88;3.45;;;16.70;52.50;;;;;;4194261;28;20047;-66
2023/01/22 12:20:52;;;;;;;4.10;3.80;;;16.60;52.40;;;;;;4197163;28;20055;-66
2023/01/22 12:23:37;;;;;;;5.53;4.68;;;16.70;53.60;;;;;;4211572;28;20047;-66
2023/01/22 12:26:23;;;;;;;4.10;3.70;;;16.70;53.40;;;;;;4210857;28;20055;-66
2023/01/22 12:29:10;;;;;;;4.40;4.00;;;16.90;53.70;;;;;;4210913;28;20042;-66
2023/01/22 12:31:56;;;;;;;4.78;3.83;;;17.00;52.90;;;;;;4202474;28;20182;-65
2023/01/22 12:34:42;;;;;;;3.95;3.60;;;17.10;51.70;;;;;;4180500;28;20051;-63
2023/01/22 12:37:26;;;;;;;3.90;3.60;;;17.20;52.10;;;;;;4194119;28;20052;-63
2023/01/22 12:40:26;;;;;;;3.67;3.40;;;17.30;51.80;;;;;;4193986;28;20051;-64
2023/01/22 12:43:08;;;;;;;4.43;4.00;;;17.50;52.00;;;;;;4193845;28;20554;-63
2023/01/22 12:45:53;;;;;;;4.15;3.83;;;17.60;52.00;;;;;;4206683;28;20062;-64
2023/01/22 12:48:46;;;;;;;4.03;3.67;;;17.80;50.90;;;;;;4210978;28;20178;-64
2023/01/22 12:51:34;;;;;;;4.78;3.70;;;17.90;50.60;;;;;;4209326;28;20058;-64
2023/01/22 12:54:27;;;;;;;4.75;4.35;;;17.90;50.50;;;;;;4210626;28;20074;-64
2023/01/22 12:57:22;;;;;;;4.43;3.75;;;17.90;50.60;;;;;;4208751;28;20844;-67
2023/01/22 13:00:13;;;;;;;4.03;3.72;;;17.80;50.40;;;;;;4210612;28;20054;-64
2023/01/22 13:02:54;;;;;;;4.47;4.10;;;17.80;50.80;;;;;;4185022;28;20134;-65
2023/01/22 13:05:44;;;;;;;6.45;4.25;;;17.80;50.50;;;;;;4181603;28;20314;-65
2023/01/22 13:08:40;;;;;;;4.20;3.80;;;17.90;51.50;;;;;;4193622;28;20174;-64
2023/01/22 13:11:30;;;;;;;4.40;4.00;;;17.90;51.40;;;;;;4193246;28;20051;-65
2023/01/22 13:14:19;;;;;;;5.82;3.88;;;17.90;51.80;;;;;;4192887;28;20101;-65
2023/01/22 13:17:03;;;;;;;4.07;3.70;;;18.00;51.70;;;;;;4177004;28;20048;-65
2023/01/22 13:19:45;;;;;;;5.53;3.97;;;18.00;51.80;;;;;;4177434;28;20091;-65
2023/01/22 13:22:28;;;;;;;3.90;3.50;;;18.00;53.10;;;;;;4176166;28;20063;-64
2023/01/22 13:25:22;;;;;;;3.75;3.35;;;18.00;52.30;;;;;;4179801;28;20179;-65
2023/01/22 13:28:04;;;;;;;4.65;3.33;;;18.00;50.70;;;;;;4209908;28;20074;-65
2023/01/22 13:30:56;;;;;;;4.28;3.88;;;18.00;52.10;;;;;;4194344;28;20059;-64
2023/01/22 13:33:37;;;;;;;4.72;3.30;;;18.00;51.90;;;;;;4193656;28;20105;-64
2023/01/22 13:36:18;;;;;;;6.05;4.03;;;18.00;51.70;;;;;;4192499;28;20043;-66
2023/01/22 13:39:00;;;;;;;3.72;3.42;;;17.90;52.00;;;;;;4205235;28;20129;-64
2023/01/22 13:41:41;;;;;;;5.25;3.67;;;17.80;51.60;;;;;;4208726;28;20055;-64
2023/01/22 13:44:25;;;;;;;4.55;4.07;;;17.70;51.30;;;;;;4183158;28;20051;-65
2023/01/22 13:47:07;;;;;;;5.53;3.33;;;17.60;52.50;;;;;;4192993;28;20218;-65
2023/01/22 13:49:48;;;;;;;6.47;4.05;;;17.60;52.30;;;;;;4183584;28;20055;-66
2023/01/22 13:52:31;;;;;;;7.60;4.53;;;17.70;52.90;;;;;;4192826;28;20475;-66
2023/01/22 13:55:17;;;;;;;5.57;3.70;;;17.70;52.30;;;;;;4187269;28;20532;-66
2023/01/22 13:58:00;;;;;;;5.00;3.95;;;17.70;50.50;;;;;;4171409;28;20056;-66
2023/01/22 14:00:52;;;;;;;5.13;3.85;;;17.70;51.10;;;;;;4191626;28;20052;-65
2023/01/22 14:03:34;;;;;;;5.20;3.88;;;17.60;51.50;;;;;;4193107;28;20083;-66
2023/01/22 14:06:15;;;;;;;7.60;4.72;;;17.60;52.50;;;;;;4192900;28;20054;-66
2023/01/22 14:08:57;;;;;;;7.18;4.20;;;17.70;51.40;;;;;;4207805;28;20055;-66
2023/01/22 14:11:40;;;;;;;7.00;4.65;;;17.80;52.30;;;;;;4176199;28;20051;-66
2023/01/22 14:14:21;;;;;;;8.88;5.00;;;17.80;52.60;;;;;;4176437;28;20047;-66
2023/01/22 14:17:02;;;;;;;5.22;3.83;;;17.80;52.10;;;;;;4179437;28;20618;-66
2023/01/22 14:19:43;;;;;;;6.15;4.10;;;17.80;50.90;;;;;;4176458;28;20094;-66
2023/01/22 14:22:25;;;;;;;4.63;3.95;;;17.70;51.00;;;;;;4176256;28;20403;-66
2023/01/22 14:25:07;;;;;;;5.25;4.15;;;17.60;50.90;;;;;;4176584;28;20183;-65